sensor_id;sensor_type;location;lat;lon;timestamp;P1;durP1;ratioP1;P2;durP2;ratioP2
35245;SDS011;21379;50.962;6.960;2023-06-22T00:01:16;271.67;;;13.63;;
35245;SDS011;21379;50.962;6.960;2023-06-22T00:03:43;28.45;;;3.83;;
35245;SDS011;21379;50.962;6.960;2023-06-22T00:06:10;5.65;;;3.70;;
35245;SDS011;21379;50.962;6.960;2023-06-22T00:08:37;4.85;;;3.17;;
35245;SDS011;21379;50.962;6.960;2023-06-22T00:11:05;5.15;;;3.58;;
35245;SDS011;21379;50.962;6.960;2023-06-22T00:13:32;6.97;;;3.42;;
35245;SDS011;21379;50.962;6.960;2023-06-22T00:15:59;4.10;;;2.83;;
35245;SDS011;21379;50.962;6.960;2023-06-22T00:18:26;5.55;;;2.95;;
35245;SDS011;21379;50.962;6.960;2023-06-22T00:20:53;6.28;;;3.65;;
35245;SDS011;21379;50.962;6.960;2023-06-22T00:23:23;7.85;;;3.05;;
35245;SDS011;21379;50.962;6.960;2023-06-22T00:25:50;5.55;;;2.92;;
35245;SDS011;21379;50.962;6.960;2023-06-22T00:28:18;5.07;;;3.10;;
35245;SDS011;21379;50.962;6.960;2023-06-22T00:30:45;4.72;;;2.85;;
35245;SDS011;21379;50.962;6.960;2023-06-22T00:33:12;3.95;;;2.90;;
35245;SDS011;21379;50.962;6.960;2023-06-22T00:35:41;3.70;;;2.63;;
35245;SDS011;21379;50.962;6.960;2023-06-22T00:38:08;5.10;;;2.95;;
35245;SDS011;21379;50.962;6.960;2023-06-22T00:40:35;36.60;;;4.07;;
35245;SDS011;21379;50.962;6.960;2023-06-22T00:43:02;39.58;;;7.38;;
35245;SDS011;21379;50.962;6.960;2023-06-22T00:45:32;3.75;;;2.70;;
35245;SDS011;21379;50.962;6.960;2023-06-22T00:47:59;5.32;;;3.25;;
35245;SDS011;21379;50.962;6.960;2023-06-22T00:50:27;5.28;;;2.83;;
35245;SDS011;21379;50.962;6.960;2023-06-22T00:52:58;7.93;;;2.72;;
35245;SDS011;21379;50.962;6.960;2023-06-22T00:55:27;3.90;;;2.38;;
35245;SDS011;21379;50.962;6.960;2023-06-22T00:57:55;3.25;;;2.45;;
35245;SDS011;21379;50.962;6.960;2023-06-22T01:00:22;3.78;;;2.42;;
35245;SDS011;21379;50.962;6.960;2023-06-22T01:02:53;3.78;;;2.58;;
35245;SDS011;21379;50.962;6.960;2023-06-22T01:05:21;5.25;;;2.80;;
35245;SDS011;21379;50.962;6.960;2023-06-22T01:07:54;4.95;;;2.90;;
35245;SDS011;21379;50.962;6.960;2023-06-22T01:10:33;3.85;;;2.80;;
35245;SDS011;21379;50.962;6.960;2023-06-22T01:13:06;7.05;;;3.35;;
35245;SDS011;21379;50.962;6.960;2023-06-22T01:15:40;3.65;;;2.47;;
35245;SDS011;21379;50.962;6.960;2023-06-22T01:18:13;6.28;;;2.53;;
35245;SDS011;21379;50.962;6.960;2023-06-22T01:20:42;4.32;;;2.65;;
35245;SDS011;21379;50.962;6.960;2023-06-22T01:23:10;6.18;;;2.40;;
35245;SDS011;21379;50.962;6.960;2023-06-22T01:25:48;3.45;;;2.35;;
35245;SDS011;21379;50.962;6.960;2023-06-22T01:28:31;4.55;;;2.83;;
35245;SDS011;21379;50.962;6.960;2023-06-22T01:31:09;4.60;;;2.67;;
35245;SDS011;21379;50.962;6.960;2023-06-22T01:33:41;5.20;;;2.80;;
35245;SDS011;21379;50.962;6.960;2023-06-22T01:36:09;5.45;;;3.28;;
35245;SDS011;21379;50.962;6.960;2023-06-22T01:38:37;5.40;;;2.70;;
35245;SDS011;21379;50.962;6.960;2023-06-22T01:41:05;6.25;;;2.80;;
35245;SDS011;21379;50.962;6.960;2023-06-22T01:43:33;10.65;;;3.63;;
35245;SDS011;21379;50.962;6.960;2023-06-22T01:46:02;57.53;;;3.60;;
35245;SDS011;21379;50.962;6.960;2023-06-22T01:48:30;5.40;;;2.42;;
35245;SDS011;21379;50.962;6.960;2023-06-22T01:50:57;5.43;;;2.42;;
35245;SDS011;21379;50.962;6.960;2023-06-22T01:53:25;4.65;;;2.88;;
35245;SDS011;21379;50.962;6.960;2023-06-22T01:55:52;5.15;;;3.10;;
35245;SDS011;21379;50.962;6.960;2023-06-22T01:58:20;3.92;;;2.75;;
35245;SDS011;21379;50.962;6.960;2023-06-22T02:00:53;4.78;;;2.47;;
35245;SDS011;21379;50.962;6.960;2023-06-22T02:03:26;4.22;;;2.72;;
35245;SDS011;21379;50.962;6.960;2023-06-22T02:05:58;2.90;;;2.28;;
35245;SDS011;21379;50.962;6.960;2023-06-22T02:08:30;5.53;;;2.60;;
35245;SDS011;21379;50.962;6.960;2023-06-22T02:11:01;3.30;;;2.40;;
35245;SDS011;21379;50.962;6.960;2023-06-22T02:13:29;7.20;;;2.40;;
35245;SDS011;21379;50.962;6.960;2023-06-22T02:15:59;3.38;;;2.00;;
35245;SDS011;21379;50.962;6.960;2023-06-22T02:18:27;5.22;;;2.15;;
35245;SDS011;21379;50.962;6.960;2023-06-22T02:20:54;3.95;;;2.40;;
35245;SDS011;21379;50.962;6.960;2023-06-22T02:23:21;4.38;;;2.58;;
35245;SDS011;21379;50.962;6.960;2023-06-22T02:25:48;4.95;;;2.83;;
35245;SDS011;21379;50.962;6.960;2023-06-22T02:28:15;3.50;;;2.28;;
35245;SDS011;21379;50.962;6.960;2023-06-22T02:30:44;3.70;;;2.25;;
35245;SDS011;21379;50.962;6.960;2023-06-22T02:33:12;3.22;;;2.15;;
35245;SDS011;21379;50.962;6.960;2023-06-22T02:35:39;3.58;;;2.35;;
35245;SDS011;21379;50.962;6.960;2023-06-22T02:38:10;4.70;;;2.60;;
35245;SDS011;21379;50.962;6.960;2023-06-22T02:40:37;3.28;;;2.40;;
35245;SDS011;21379;50.962;6.960;2023-06-22T02:43:04;4.93;;;2.95;;
35245;SDS011;21379;50.962;6.960;2023-06-22T02:45:31;4.93;;;2.58;;
35245;SDS011;21379;50.962;6.960;2023-06-22T02:47:58;6.55;;;2.67;;
35245;SDS011;21379;50.962;6.960;2023-06-22T02:50:26;2.72;;;2.22;;
35245;SDS011;21379;50.962;6.960;2023-06-22T02:52:54;4.93;;;2.33;;
35245;SDS011;21379;50.962;6.960;2023-06-22T02:55:24;4.57;;;2.50;;
35245;SDS011;21379;50.962;6.960;2023-06-22T02:57:55;6.78;;;2.85;;
35245;SDS011;21379;50.962;6.960;2023-06-22T03:00:25;3.67;;;2.08;;
35245;SDS011;21379;50.962;6.960;2023-06-22T03:02:56;3.20;;;2.28;;
35245;SDS011;21379;50.962;6.960;2023-06-22T03:05:23;5.78;;;2.38;;
35245;SDS011;21379;50.962;6.960;2023-06-22T03:07:52;3.42;;;2.22;;
35245;SDS011;21379;50.962;6.960;2023-06-22T03:10:19;4.60;;;2.40;;
35245;SDS011;21379;50.962;6.960;2023-06-22T03:12:46;4.75;;;2.35;;
35245;SDS011;21379;50.962;6.960;2023-06-22T03:15:13;4.15;;;2.65;;
35245;SDS011;21379;50.962;6.960;2023-06-22T03:17:42;5.88;;;2.30;;
35245;SDS011;21379;50.962;6.960;2023-06-22T03:20:09;4.50;;;2.90;;
35245;SDS011;21379;50.962;6.960;2023-06-22T03:22:37;4.45;;;2.58;;
35245;SDS011;21379;50.962;6.960;2023-06-22T03:25:07;5.85;;;2.75;;
35245;SDS011;21379;50.962;6.960;2023-06-22T03:27:40;77.40;;;19.05;;
35245;SDS011;21379;50.962;6.960;2023-06-22T03:30:10;5.15;;;2.92;;
35245;SDS011;21379;50.962;6.960;2023-06-22T03:32:38;3.35;;;2.13;;
35245;SDS011;21379;50.962;6.960;2023-06-22T03:35:06;6.07;;;2.88;;
35245;SDS011;21379;50.962;6.960;2023-06-22T03:37:35;4.93;;;2.60;;
35245;SDS011;21379;50.962;6.960;2023-06-22T03:40:02;7.18;;;2.55;;
35245;SDS011;21379;50.962;6.960;2023-06-22T03:42:33;5.25;;;2.72;;
35245;SDS011;21379;50.962;6.960;2023-06-22T03:45:01;5.43;;;2.53;;
35245;SDS011;21379;50.962;6.960;2023-06-22T03:47:28;7.03;;;2.60;;
35245;SDS011;21379;50.962;6.960;2023-06-22T03:49:57;3.67;;;2.20;;
35245;SDS011;21379;50.962;6.960;2023-06-22T03:52:24;4.57;;;2.50;;
35245;SDS011;21379;50.962;6.960;2023-06-22T03:54:51;4.75;;;2.97;;
35245;SDS011;21379;50.962;6.960;2023-06-22T03:57:17;4.53;;;2.50;;
35245;SDS011;21379;50.962;6.960;2023-06-22T03:59:46;4.78;;;2.70;;
35245;SDS011;21379;50.962;6.960;2023-06-22T04:02:12;4.20;;;3.10;;
35245;SDS011;21379;50.962;6.960;2023-06-22T04:04:39;6.68;;;2.28;;
35245;SDS011;21379;50.962;6.960;2023-06-22T04:07:06;3.75;;;2.67;;
35245;SDS011;21379;50.962;6.960;2023-06-22T04:09:34;4.20;;;2.70;;
35245;SDS011;21379;50.962;6.960;2023-06-22T04:12:01;4.07;;;2.63;;
35245;SDS011;21379;50.962;6.960;2023-06-22T04:14:28;4.95;;;2.10;;
35245;SDS011;21379;50.962;6.960;2023-06-22T04:16:57;4.80;;;2.80;;
35245;SDS011;21379;50.962;6.960;2023-06-22T04:19:24;6.05;;;2.33;;
35245;SDS011;21379;50.962;6.960;2023-06-22T04:21:51;4.65;;;2.80;;
35245;SDS011;21379;50.962;6.960;2023-06-22T04:24:17;5.57;;;2.70;;
35245;SDS011;21379;50.962;6.960;2023-06-22T04:26:44;3.75;;;2.63;;
35245;SDS011;21379;50.962;6.960;2023-06-22T04:29:12;4.43;;;3.10;;
35245;SDS011;21379;50.962;6.960;2023-06-22T04:31:39;5.55;;;2.90;;
35245;SDS011;21379;50.962;6.960;2023-06-22T04:34:07;4.93;;;3.47;;
35245;SDS011;21379;50.962;6.960;2023-06-22T04:36:35;5.63;;;3.30;;
35245;SDS011;21379;50.962;6.960;2023-06-22T04:39:04;5.82;;;3.47;;
35245;SDS011;21379;50.962;6.960;2023-06-22T04:41:32;5.82;;;3.60;;
35245;SDS011;21379;50.962;6.960;2023-06-22T04:46:37;12.35;;;4.45;;
35245;SDS011;21379;50.962;6.960;2023-06-22T04:49:05;5.95;;;4.25;;
35245;SDS011;21379;50.962;6.960;2023-06-22T04:51:40;8.52;;;4.82;;
35245;SDS011;21379;50.962;6.960;2023-06-22T04:54:08;5.75;;;4.20;;
35245;SDS011;21379;50.962;6.960;2023-06-22T04:56:36;6.82;;;4.60;;
35245;SDS011;21379;50.962;6.960;2023-06-22T04:59:05;7.88;;;5.20;;
35245;SDS011;21379;50.962;6.960;2023-06-22T05:01:33;6.70;;;4.70;;
35245;SDS011;21379;50.962;6.960;2023-06-22T05:04:00;6.35;;;4.35;;
35245;SDS011;21379;50.962;6.960;2023-06-22T05:06:28;8.43;;;4.35;;
35245;SDS011;21379;50.962;6.960;2023-06-22T05:08:56;7.72;;;4.72;;
35245;SDS011;21379;50.962;6.960;2023-06-22T05:11:24;8.32;;;4.63;;
35245;SDS011;21379;50.962;6.960;2023-06-22T05:13:51;8.35;;;4.78;;
35245;SDS011;21379;50.962;6.960;2023-06-22T05:16:19;7.53;;;5.28;;
35245;SDS011;21379;50.962;6.960;2023-06-22T05:18:49;8.68;;;5.15;;
35245;SDS011;21379;50.962;6.960;2023-06-22T05:21:18;7.45;;;5.30;;
35245;SDS011;21379;50.962;6.960;2023-06-22T05:23:45;6.07;;;4.82;;
35245;SDS011;21379;50.962;6.960;2023-06-22T05:26:13;6.05;;;4.47;;
35245;SDS011;21379;50.962;6.960;2023-06-22T05:28:40;7.03;;;4.88;;
35245;SDS011;21379;50.962;6.960;2023-06-22T05:31:10;8.77;;;5.00;;
35245;SDS011;21379;50.962;6.960;2023-06-22T05:33:38;13.10;;;4.97;;
35245;SDS011;21379;50.962;6.960;2023-06-22T05:36:05;9.05;;;5.28;;
35245;SDS011;21379;50.962;6.960;2023-06-22T05:38:32;7.57;;;5.32;;
35245;SDS011;21379;50.962;6.960;2023-06-22T05:40:59;8.35;;;5.35;;
35245;SDS011;21379;50.962;6.960;2023-06-22T05:43:27;7.07;;;5.22;;
35245;SDS011;21379;50.962;6.960;2023-06-22T05:45:54;7.90;;;5.65;;
35245;SDS011;21379;50.962;6.960;2023-06-22T05:48:21;6.78;;;5.03;;
35245;SDS011;21379;50.962;6.960;2023-06-22T05:50:48;7.45;;;4.80;;
35245;SDS011;21379;50.962;6.960;2023-06-22T05:53:15;8.73;;;5.03;;
35245;SDS011;21379;50.962;6.960;2023-06-22T05:55:42;11.95;;;6.25;;
35245;SDS011;21379;50.962;6.960;2023-06-22T05:58:09;8.20;;;5.45;;
35245;SDS011;21379;50.962;6.960;2023-06-22T06:00:37;8.55;;;5.38;;
35245;SDS011;21379;50.962;6.960;2023-06-22T06:03:04;10.02;;;5.28;;
35245;SDS011;21379;50.962;6.960;2023-06-22T06:05:31;9.73;;;5.20;;
35245;SDS011;21379;50.962;6.960;2023-06-22T06:07:59;9.60;;;4.97;;
35245;SDS011;21379;50.962;6.960;2023-06-22T06:10:26;7.40;;;4.47;;
35245;SDS011;21379;50.962;6.960;2023-06-22T06:12:54;23.98;;;6.80;;
35245;SDS011;21379;50.962;6.960;2023-06-22T06:15:21;6.82;;;5.03;;
35245;SDS011;21379;50.962;6.960;2023-06-22T06:17:50;7.80;;;5.25;;
35245;SDS011;21379;50.962;6.960;2023-06-22T06:20:19;7.93;;;4.97;;
35245;SDS011;21379;50.962;6.960;2023-06-22T06:22:47;8.50;;;5.28;;
35245;SDS011;21379;50.962;6.960;2023-06-22T06:25:14;6.65;;;3.92;;
35245;SDS011;21379;50.962;6.960;2023-06-22T06:27:42;7.85;;;4.38;;
35245;SDS011;21379;50.962;6.960;2023-06-22T06:30:10;7.10;;;5.20;;
35245;SDS011;21379;50.962;6.960;2023-06-22T06:32:37;6.72;;;4.55;;
35245;SDS011;21379;50.962;6.960;2023-06-22T06:35:09;6.50;;;4.13;;
35245;SDS011;21379;50.962;6.960;2023-06-22T06:37:37;6.10;;;4.30;;
35245;SDS011;21379;50.962;6.960;2023-06-22T06:40:06;7.07;;;4.47;;
35245;SDS011;21379;50.962;6.960;2023-06-22T06:42:35;9.45;;;4.95;;
35245;SDS011;21379;50.962;6.960;2023-06-22T06:45:04;6.22;;;4.18;;
35245;SDS011;21379;50.962;6.960;2023-06-22T06:47:31;11.23;;;5.07;;
35245;SDS011;21379;50.962;6.960;2023-06-22T06:49:58;7.25;;;4.90;;
35245;SDS011;21379;50.962;6.960;2023-06-22T06:52:27;7.95;;;4.97;;
35245;SDS011;21379;50.962;6.960;2023-06-22T06:54:54;7.53;;;4.80;;
35245;SDS011;21379;50.962;6.960;2023-06-22T06:57:21;8.50;;;4.90;;
35245;SDS011;21379;50.962;6.960;2023-06-22T06:59:48;9.27;;;4.55;;
35245;SDS011;21379;50.962;6.960;2023-06-22T07:02:15;8.80;;;5.13;;
35245;SDS011;21379;50.962;6.960;2023-06-22T07:04:42;8.18;;;5.03;;
35245;SDS011;21379;50.962;6.960;2023-06-22T07:07:09;10.10;;;5.50;;
35245;SDS011;21379;50.962;6.960;2023-06-22T07:09:38;10.18;;;5.07;;
35245;SDS011;21379;50.962;6.960;2023-06-22T07:12:05;8.02;;;4.93;;
35245;SDS011;21379;50.962;6.960;2023-06-22T07:14:32;5.88;;;4.50;;
35245;SDS011;21379;50.962;6.960;2023-06-22T07:16:59;6.25;;;4.40;;
35245;SDS011;21379;50.962;6.960;2023-06-22T07:19:26;8.52;;;4.57;;
35245;SDS011;21379;50.962;6.960;2023-06-22T07:21:54;14.50;;;4.88;;
35245;SDS011;21379;50.962;6.960;2023-06-22T07:24:21;10.40;;;5.43;;
35245;SDS011;21379;50.962;6.960;2023-06-22T07:26:50;7.85;;;4.75;;
35245;SDS011;21379;50.962;6.960;2023-06-22T07:29:17;9.02;;;5.28;;
35245;SDS011;21379;50.962;6.960;2023-06-22T07:31:45;7.70;;;4.80;;
35245;SDS011;21379;50.962;6.960;2023-06-22T07:34:12;9.45;;;5.32;;
35245;SDS011;21379;50.962;6.960;2023-06-22T07:36:39;8.35;;;4.90;;
35245;SDS011;21379;50.962;6.960;2023-06-22T07:39:06;7.55;;;5.13;;
35245;SDS011;21379;50.962;6.960;2023-06-22T07:41:33;8.40;;;5.00;;
35245;SDS011;21379;50.962;6.960;2023-06-22T07:44:01;8.45;;;4.63;;
35245;SDS011;21379;50.962;6.960;2023-06-22T07:46:29;9.65;;;5.03;;
35245;SDS011;21379;50.962;6.960;2023-06-22T07:48:56;6.03;;;4.07;;
35245;SDS011;21379;50.962;6.960;2023-06-22T07:51:23;7.00;;;4.53;;
35245;SDS011;21379;50.962;6.960;2023-06-22T07:53:50;6.47;;;4.72;;
35245;SDS011;21379;50.962;6.960;2023-06-22T07:56:17;6.40;;;4.47;;
35245;SDS011;21379;50.962;6.960;2023-06-22T07:58:45;6.53;;;4.65;;
35245;SDS011;21379;50.962;6.960;2023-06-22T08:01:14;6.40;;;3.97;;
35245;SDS011;21379;50.962;6.960;2023-06-22T08:03:41;9.40;;;4.88;;
35245;SDS011;21379;50.962;6.960;2023-06-22T08:06:08;7.28;;;4.50;;
35245;SDS011;21379;50.962;6.960;2023-06-22T08:08:36;5.63;;;4.07;;
35245;SDS011;21379;50.962;6.960;2023-06-22T08:11:03;7.32;;;4.40;;
35245;SDS011;21379;50.962;6.960;2023-06-22T08:13:30;14.43;;;5.07;;
35245;SDS011;21379;50.962;6.960;2023-06-22T08:15:58;6.88;;;4.60;;
35245;SDS011;21379;50.962;6.960;2023-06-22T08:18:26;16.20;;;4.78;;
35245;SDS011;21379;50.962;6.960;2023-06-22T08:20:53;5.40;;;3.90;;
35245;SDS011;21379;50.962;6.960;2023-06-22T08:23:20;6.80;;;4.57;;
35245;SDS011;21379;50.962;6.960;2023-06-22T08:25:47;6.47;;;3.83;;
35245;SDS011;21379;50.962;6.960;2023-06-22T08:28:15;5.78;;;4.13;;
35245;SDS011;21379;50.962;6.960;2023-06-22T08:30:42;10.00;;;4.38;;
35245;SDS011;21379;50.962;6.960;2023-06-22T08:33:09;7.32;;;4.35;;
35245;SDS011;21379;50.962;6.960;2023-06-22T08:35:37;6.38;;;4.60;;
35245;SDS011;21379;50.962;6.960;2023-06-22T08:38:04;4.93;;;3.90;;
35245;SDS011;21379;50.962;6.960;2023-06-22T08:40:31;10.52;;;4.00;;
35245;SDS011;21379;50.962;6.960;2023-06-22T08:42:58;6.00;;;4.40;;
35245;SDS011;21379;50.962;6.960;2023-06-22T08:45:25;5.80;;;4.15;;
35245;SDS011;21379;50.962;6.960;2023-06-22T08:47:52;5.35;;;3.90;;
35245;SDS011;21379;50.962;6.960;2023-06-22T08:50:19;10.85;;;4.50;;
35245;SDS011;21379;50.962;6.960;2023-06-22T08:52:48;8.90;;;5.18;;
35245;SDS011;21379;50.962;6.960;2023-06-22T08:55:15;6.63;;;4.53;;
35245;SDS011;21379;50.962;6.960;2023-06-22T08:57:42;7.28;;;4.30;;
35245;SDS011;21379;50.962;6.960;2023-06-22T09:00:09;6.03;;;4.22;;
35245;SDS011;21379;50.962;6.960;2023-06-22T09:02:45;7.10;;;4.40;;
35245;SDS011;21379;50.962;6.960;2023-06-22T09:05:12;5.93;;;4.38;;
35245;SDS011;21379;50.962;6.960;2023-06-22T09:07:39;7.72;;;4.18;;
35245;SDS011;21379;50.962;6.960;2023-06-22T09:10:08;6.97;;;3.75;;
35245;SDS011;21379;50.962;6.960;2023-06-22T09:12:35;6.10;;;4.32;;
35245;SDS011;21379;50.962;6.960;2023-06-22T09:15:03;11.43;;;4.25;;
35245;SDS011;21379;50.962;6.960;2023-06-22T09:17:32;31.48;;;5.28;;
35245;SDS011;21379;50.962;6.960;2023-06-22T09:20:00;8.38;;;3.60;;
35245;SDS011;21379;50.962;6.960;2023-06-22T09:22:30;6.68;;;4.32;;
35245;SDS011;21379;50.962;6.960;2023-06-22T09:24:58;5.30;;;3.88;;
35245;SDS011;21379;50.962;6.960;2023-06-22T09:27:27;6.15;;;3.53;;
35245;SDS011;21379;50.962;6.960;2023-06-22T09:29:54;6.15;;;4.25;;
35245;SDS011;21379;50.962;6.960;2023-06-22T09:32:23;5.65;;;3.67;;
35245;SDS011;21379;50.962;6.960;2023-06-22T09:34:50;5.30;;;3.67;;
35245;SDS011;21379;50.962;6.960;2023-06-22T09:37:18;5.10;;;3.22;;
35245;SDS011;21379;50.962;6.960;2023-06-22T09:39:45;7.63;;;3.55;;
35245;SDS011;21379;50.962;6.960;2023-06-22T09:42:12;6.80;;;4.22;;
35245;SDS011;21379;50.962;6.960;2023-06-22T09:44:40;4.47;;;3.40;;
35245;SDS011;21379;50.962;6.960;2023-06-22T09:47:07;5.18;;;3.50;;
35245;SDS011;21379;50.962;6.960;2023-06-22T09:49:34;5.45;;;3.30;;
35245;SDS011;21379;50.962;6.960;2023-06-22T09:52:01;4.25;;;3.08;;
35245;SDS011;21379;50.962;6.960;2023-06-22T09:54:28;7.32;;;3.63;;
35245;SDS011;21379;50.962;6.960;2023-06-22T09:56:55;6.35;;;4.00;;
35245;SDS011;21379;50.962;6.960;2023-06-22T09:59:22;6.15;;;4.15;;
35245;SDS011;21379;50.962;6.960;2023-06-22T10:01:50;4.40;;;3.00;;
35245;SDS011;21379;50.962;6.960;2023-06-22T10:04:17;4.70;;;3.20;;
35245;SDS011;21379;50.962;6.960;2023-06-22T10:06:44;7.28;;;4.05;;
35245;SDS011;21379;50.962;6.960;2023-06-22T10:09:11;8.38;;;4.07;;
35245;SDS011;21379;50.962;6.960;2023-06-22T10:11:38;6.25;;;3.67;;
35245;SDS011;21379;50.962;6.960;2023-06-22T10:14:05;5.95;;;3.85;;
35245;SDS011;21379;50.962;6.960;2023-06-22T10:16:32;6.03;;;3.97;;
35245;SDS011;21379;50.962;6.960;2023-06-22T10:19:02;7.15;;;3.65;;
35245;SDS011;21379;50.962;6.960;2023-06-22T10:21:29;5.57;;;4.10;;
35245;SDS011;21379;50.962;6.960;2023-06-22T10:23:56;6.00;;;3.85;;
35245;SDS011;21379;50.962;6.960;2023-06-22T10:26:24;8.07;;;3.95;;
35245;SDS011;21379;50.962;6.960;2023-06-22T10:28:54;5.00;;;3.92;;
35245;SDS011;21379;50.962;6.960;2023-06-22T10:31:24;8.25;;;4.50;;
35245;SDS011;21379;50.962;6.960;2023-06-22T10:33:50;6.45;;;3.70;;
35245;SDS011;21379;50.962;6.960;2023-06-22T10:36:20;5.85;;;3.83;;
35245;SDS011;21379;50.962;6.960;2023-06-22T10:38:47;6.97;;;4.32;;
35245;SDS011;21379;50.962;6.960;2023-06-22T10:41:14;8.60;;;4.65;;
35245;SDS011;21379;50.962;6.960;2023-06-22T10:43:42;11.85;;;4.95;;
35245;SDS011;21379;50.962;6.960;2023-06-22T10:46:09;12.15;;;4.70;;
35245;SDS011;21379;50.962;6.960;2023-06-22T10:48:35;8.93;;;4.30;;
35245;SDS011;21379;50.962;6.960;2023-06-22T10:51:02;8.88;;;5.03;;
35245;SDS011;21379;50.962;6.960;2023-06-22T10:53:31;11.27;;;5.80;;
35245;SDS011;21379;50.962;6.960;2023-06-22T10:55:58;11.35;;;6.25;;
35245;SDS011;21379;50.962;6.960;2023-06-22T10:58:25;10.63;;;6.47;;
35245;SDS011;21379;50.962;6.960;2023-06-22T11:00:52;18.27;;;7.78;;
35245;SDS011;21379;50.962;6.960;2023-06-22T11:03:19;14.40;;;7.07;;
35245;SDS011;21379;50.962;6.960;2023-06-22T11:05:46;15.48;;;7.93;;
35245;SDS011;21379;50.962;6.960;2023-06-22T11:08:13;12.38;;;7.85;;
35245;SDS011;21379;50.962;6.960;2023-06-22T11:10:42;17.13;;;8.13;;
35245;SDS011;21379;50.962;6.960;2023-06-22T11:13:10;16.48;;;8.70;;
35245;SDS011;21379;50.962;6.960;2023-06-22T11:15:37;16.95;;;9.20;;
35245;SDS011;21379;50.962;6.960;2023-06-22T11:18:05;16.08;;;10.18;;
35245;SDS011;21379;50.962;6.960;2023-06-22T11:20:33;19.63;;;10.18;;
35245;SDS011;21379;50.962;6.960;2023-06-22T11:23:03;18.60;;;11.65;;
35245;SDS011;21379;50.962;6.960;2023-06-22T11:25:30;24.80;;;10.80;;
35245;SDS011;21379;50.962;6.960;2023-06-22T11:28:01;14.98;;;9.95;;
35245;SDS011;21379;50.962;6.960;2023-06-22T11:30:28;17.52;;;9.80;;
35245;SDS011;21379;50.962;6.960;2023-06-22T11:32:56;19.17;;;11.18;;
35245;SDS011;21379;50.962;6.960;2023-06-22T11:35:24;17.08;;;11.35;;
35245;SDS011;21379;50.962;6.960;2023-06-22T11:37:51;15.25;;;10.95;;
35245;SDS011;21379;50.962;6.960;2023-06-22T11:40:17;16.55;;;10.15;;
35245;SDS011;21379;50.962;6.960;2023-06-22T11:42:45;21.15;;;11.05;;
35245;SDS011;21379;50.962;6.960;2023-06-22T11:45:13;17.02;;;12.02;;
35245;SDS011;21379;50.962;6.960;2023-06-22T11:47:40;17.13;;;10.10;;
35245;SDS011;21379;50.962;6.960;2023-06-22T11:50:07;17.77;;;10.43;;
35245;SDS011;21379;50.962;6.960;2023-06-22T11:52:34;15.35;;;9.93;;
35245;SDS011;21379;50.962;6.960;2023-06-22T11:55:02;17.50;;;10.70;;
35245;SDS011;21379;50.962;6.960;2023-06-22T11:57:32;14.68;;;9.95;;
35245;SDS011;21379;50.962;6.960;2023-06-22T11:59:59;18.15;;;10.07;;
35245;SDS011;21379;50.962;6.960;2023-06-22T12:02:33;17.77;;;11.50;;
35245;SDS011;21379;50.962;6.960;2023-06-22T12:05:00;17.90;;;11.43;;
35245;SDS011;21379;50.962;6.960;2023-06-22T12:07:30;19.40;;;12.20;;
35245;SDS011;21379;50.962;6.960;2023-06-22T12:09:57;17.23;;;11.43;;
35245;SDS011;21379;50.962;6.960;2023-06-22T12:12:24;16.73;;;11.15;;
35245;SDS011;21379;50.962;6.960;2023-06-22T12:14:51;17.02;;;10.15;;
35245;SDS011;21379;50.962;6.960;2023-06-22T12:17:17;11.68;;;8.05;;
35245;SDS011;21379;50.962;6.960;2023-06-22T12:19:46;11.60;;;7.82;;
35245;SDS011;21379;50.962;6.960;2023-06-22T12:22:13;11.38;;;7.95;;
35245;SDS011;21379;50.962;6.960;2023-06-22T12:24:40;12.00;;;7.38;;
35245;SDS011;21379;50.962;6.960;2023-06-22T12:27:06;15.88;;;9.40;;
35245;SDS011;21379;50.962;6.960;2023-06-22T12:29:35;11.80;;;8.10;;
35245;SDS011;21379;50.962;6.960;2023-06-22T12:32:02;16.67;;;8.05;;
35245;SDS011;21379;50.962;6.960;2023-06-22T12:34:29;11.68;;;7.45;;
35245;SDS011;21379;50.962;6.960;2023-06-22T12:36:57;14.45;;;7.70;;
35245;SDS011;21379;50.962;6.960;2023-06-22T12:39:24;13.23;;;7.07;;
35245;SDS011;21379;50.962;6.960;2023-06-22T12:41:51;12.90;;;6.30;;
35245;SDS011;21379;50.962;6.960;2023-06-22T12:44:18;8.55;;;6.07;;
35245;SDS011;21379;50.962;6.960;2023-06-22T12:46:45;7.85;;;5.55;;
35245;SDS011;21379;50.962;6.960;2023-06-22T12:49:12;9.07;;;5.75;;
35245;SDS011;21379;50.962;6.960;2023-06-22T12:51:39;11.15;;;5.55;;
35245;SDS011;21379;50.962;6.960;2023-06-22T12:54:08;10.27;;;6.57;;
35245;SDS011;21379;50.962;6.960;2023-06-22T12:56:36;9.82;;;6.05;;
35245;SDS011;21379;50.962;6.960;2023-06-22T12:59:04;13.40;;;6.20;;
35245;SDS011;21379;50.962;6.960;2023-06-22T13:01:31;13.25;;;6.00;;
35245;SDS011;21379;50.962;6.960;2023-06-22T13:03:59;8.80;;;5.50;;
35245;SDS011;21379;50.962;6.960;2023-06-22T13:06:26;11.32;;;6.88;;
35245;SDS011;21379;50.962;6.960;2023-06-22T13:08:53;8.68;;;5.78;;
35245;SDS011;21379;50.962;6.960;2023-06-22T13:11:21;8.95;;;5.50;;
35245;SDS011;21379;50.962;6.960;2023-06-22T13:13:48;10.05;;;6.72;;
35245;SDS011;21379;50.962;6.960;2023-06-22T13:16:15;11.57;;;6.18;;
35245;SDS011;21379;50.962;6.960;2023-06-22T13:18:42;7.75;;;5.18;;
35245;SDS011;21379;50.962;6.960;2023-06-22T13:21:09;8.00;;;5.50;;
35245;SDS011;21379;50.962;6.960;2023-06-22T13:23:35;7.28;;;5.60;;
35245;SDS011;21379;50.962;6.960;2023-06-22T13:26:02;8.50;;;5.38;;
35245;SDS011;21379;50.962;6.960;2023-06-22T13:28:31;8.07;;;4.82;;
35245;SDS011;21379;50.962;6.960;2023-06-22T13:30:58;7.78;;;4.50;;
35245;SDS011;21379;50.962;6.960;2023-06-22T13:33:24;6.53;;;4.55;;
35245;SDS011;21379;50.962;6.960;2023-06-22T13:35:51;8.57;;;4.85;;
35245;SDS011;21379;50.962;6.960;2023-06-22T13:38:18;6.45;;;4.40;;
35245;SDS011;21379;50.962;6.960;2023-06-22T13:40:45;7.00;;;4.97;;
35245;SDS011;21379;50.962;6.960;2023-06-22T13:43:13;6.38;;;4.70;;
35245;SDS011;21379;50.962;6.960;2023-06-22T13:45:42;5.93;;;4.57;;
35245;SDS011;21379;50.962;6.960;2023-06-22T13:48:09;5.07;;;3.97;;
35245;SDS011;21379;50.962;6.960;2023-06-22T13:50:36;6.45;;;4.15;;
35245;SDS011;21379;50.962;6.960;2023-06-22T13:53:05;7.25;;;4.00;;
35245;SDS011;21379;50.962;6.960;2023-06-22T13:55:32;5.35;;;4.35;;
35245;SDS011;21379;50.962;6.960;2023-06-22T13:57:59;4.88;;;3.70;;
35245;SDS011;21379;50.962;6.960;2023-06-22T14:00:26;4.80;;;3.50;;
35245;SDS011;21379;50.962;6.960;2023-06-22T14:02:55;4.85;;;3.42;;
35245;SDS011;21379;50.962;6.960;2023-06-22T14:05:21;4.00;;;2.70;;
35245;SDS011;21379;50.962;6.960;2023-06-22T14:07:48;4.50;;;3.00;;
35245;SDS011;21379;50.962;6.960;2023-06-22T14:10:15;3.75;;;2.83;;
35245;SDS011;21379;50.962;6.960;2023-06-22T14:12:42;3.20;;;2.60;;
35245;SDS011;21379;50.962;6.960;2023-06-22T14:15:10;4.75;;;2.63;;
35245;SDS011;21379;50.962;6.960;2023-06-22T14:17:36;3.83;;;2.13;;
35245;SDS011;21379;50.962;6.960;2023-06-22T14:20:05;4.97;;;2.97;;
35245;SDS011;21379;50.962;6.960;2023-06-22T14:22:33;7.07;;;2.67;;
35245;SDS011;21379;50.962;6.960;2023-06-22T14:25:01;8.55;;;5.70;;
35245;SDS011;21379;50.962;6.960;2023-06-22T14:27:29;4.10;;;2.70;;
35245;SDS011;21379;50.962;6.960;2023-06-22T14:29:56;7.07;;;4.00;;
35245;SDS011;21379;50.962;6.960;2023-06-22T14:32:23;4.43;;;3.05;;
35245;SDS011;21379;50.962;6.960;2023-06-22T14:34:50;3.92;;;3.00;;
35245;SDS011;21379;50.962;6.960;2023-06-22T14:37:18;5.80;;;3.30;;
35245;SDS011;21379;50.962;6.960;2023-06-22T14:39:45;4.57;;;3.00;;
35245;SDS011;21379;50.962;6.960;2023-06-22T14:42:12;5.82;;;3.33;;
35245;SDS011;21379;50.962;6.960;2023-06-22T14:44:39;4.43;;;3.22;;
35245;SDS011;21379;50.962;6.960;2023-06-22T14:47:10;4.95;;;3.20;;
35245;SDS011;21379;50.962;6.960;2023-06-22T14:49:36;5.05;;;3.42;;